Time;durP1;ratioP1;P1;durP2;ratioP2;P2;SDS_P1;SDS_P2;PMS_P1;PMS_P2;Temp;Humidity;BMP_temperature;BMP_pressure;BME280_temperature;BME280_humidity;BME280_pressure;Samples;Min_cycle;Max_cycle;Signal;HPM_P1;HPM_P2
2021/06/07 00:00:20;;;;;;;;;13.50;13.50;;;;;;;;3546007;39;112988;-78
2021/06/07 00:02:46;;;;;;;;;17.50;15.50;;;;;;;;3547563;39;112445;-78
2021/06/07 00:05:12;;;;;;;;;16.50;15.25;;;;;;;;3548120;39;112510;-78
2021/06/07 00:07:38;;;;;;;;;13.00;12.25;;;;;;;;3552063;39;113935;-79
2021/06/07 00:10:07;;;;;;;;;17.50;14.75;;;;;;;;3547517;39;113150;-79
2021/06/07 00:12:34;;;;;;;;;16.00;16.00;;;;;;;;3547643;39;114014;-79
2021/06/07 00:15:00;;;;;;;;;15.00;13.00;;;;;;;;3550294;39;112047;-79
2021/06/07 00:17:26;;;;;;;;;14.25;14.00;;;;;;;;3546883;39;113521;-79
2021/06/07 00:19:52;;;;;;;;;15.00;15.00;;;;;;;;3549766;39;113862;-78
2021/06/07 00:22:18;;;;;;;;;18.00;16.00;;;;;;;;3549045;39;111908;-79
2021/06/07 00:24:44;;;;;;;;;13.25;13.00;;;;;;;;3549647;39;113461;-79
2021/06/07 00:27:12;;;;;;;;;15.00;14.50;;;;;;;;3550158;39;114465;-79
2021/06/07 00:29:38;;;;;;;;;15.50;15.00;;;;;;;;3552591;39;111845;-79
2021/06/07 00:32:05;;;;;;;;;15.25;13.00;;;;;;;;3548375;39;113818;-79
2021/06/07 00:34:31;;;;;;;;;15.00;14.50;;;;;;;;3550685;39;111831;-79
2021/06/07 00:36:57;;;;;;;;;13.50;11.75;;;;;;;;3550215;39;113687;-79
2021/06/07 00:39:24;;;;;;;;;19.75;17.00;;;;;;;;3549998;39;114449;-79
2021/06/07 00:41:50;;;;;;;;;14.50;14.50;;;;;;;;3548889;39;111869;-79
2021/06/07 00:44:20;;;;;;;;;17.00;15.25;;;;;;;;3550003;39;113260;-79
2021/06/07 00:46:46;;;;;;;;;15.00;14.00;;;;;;;;3548828;39;113923;-78
2021/06/07 00:49:12;;;;;;;;;16.00;15.75;;;;;;;;3549285;39;111858;-79
2021/06/07 00:51:39;;;;;;;;;14.25;14.25;;;;;;;;3552580;39;113477;-79
2021/06/07 00:54:06;;;;;;;;;13.50;12.50;;;;;;;;3549808;39;112997;-79
2021/06/07 00:56:32;;;;;;;;;14.00;14.00;;;;;;;;3548534;39;113439;-79
2021/06/07 00:58:58;;;;;;;;;14.75;13.00;;;;;;;;3547930;39;114148;-78
2021/06/07 01:01:26;;;;;;;;;16.50;15.00;;;;;;;;3548649;39;112054;-78
2021/06/07 01:03:53;;;;;;;;;15.50;15.50;;;;;;;;3550131;39;114256;-79
2021/06/07 01:06:20;;;;;;;;;14.00;14.00;;;;;;;;3548264;39;113800;-78
2021/06/07 01:08:46;;;;;;;;;14.75;14.00;;;;;;;;3549533;39;112005;-79
2021/06/07 01:11:13;;;;;;;;;16.00;14.25;;;;;;;;3549234;39;113641;-79
2021/06/07 01:13:39;;;;;;;;;13.00;13.00;;;;;;;;3551189;39;114020;-80
2021/06/07 01:16:06;;;;;;;;;17.25;15.00;;;;;;;;3549746;39;113423;-79
2021/06/07 01:18:33;;;;;;;;;17.75;16.25;;;;;;;;3548146;39;113180;-79
2021/06/07 01:21:01;;;;;;;;;17.50;16.50;;;;;;;;3550209;39;111772;-79
2021/06/07 01:23:29;;;;;;;;;14.00;12.25;;;;;;;;3546561;39;113401;-79
2021/06/07 01:25:56;;;;;;;;;13.00;11.25;;;;;;;;3545838;39;113943;-79
2021/06/07 01:28:22;;;;;;;;;17.75;16.00;;;;;;;;3549794;39;111993;-78
2021/06/07 01:30:49;;;;;;;;;17.00;14.50;;;;;;;;3547910;39;113729;-78
2021/06/07 01:33:17;;;;;;;;;15.00;14.00;;;;;;;;3548263;39;113767;-79
2021/06/07 01:35:44;;;;;;;;;13.00;13.00;;;;;;;;3550949;39;111858;-78
2021/06/07 01:38:11;;;;;;;;;15.25;15.25;;;;;;;;3548019;39;113203;-78
2021/06/07 01:40:39;;;;;;;;;15.25;15.00;;;;;;;;3549450;39;111876;-79
2021/06/07 01:43:06;;;;;;;;;13.25;13.25;;;;;;;;3548915;39;112983;-89
2021/06/07 01:45:33;;;;;;;;;14.75;14.00;;;;;;;;3549632;39;114835;-77
2021/06/07 01:48:00;;;;;;;;;15.25;15.25;;;;;;;;3547829;39;111848;-77
2021/06/07 01:50:26;;;;;;;;;16.00;16.00;;;;;;;;3547950;39;113183;-77
2021/06/07 01:52:53;;;;;;;;;15.25;15.25;;;;;;;;3548873;39;114115;-77
2021/06/07 01:55:20;;;;;;;;;16.75;14.75;;;;;;;;3552321;39;112016;-77
2021/06/07 01:57:49;;;;;;;;;16.00;16.00;;;;;;;;3548367;39;113766;-77
2021/06/07 02:00:20;;;;;;;;;16.00;15.00;;;;;;;;3548810;39;111860;-77
2021/06/07 02:02:47;;;;;;;;;16.50;16.50;;;;;;;;3548771;39;113698;-77
2021/06/07 02:05:14;;;;;;;;;15.25;15.25;;;;;;;;3548009;39;114119;-76
2021/06/07 02:07:43;;;;;;;;;16.75;15.25;;;;;;;;3548972;39;112157;-75
2021/06/07 02:10:09;;;;;;;;;19.50;17.00;;;;;;;;3547958;39;113417;-76
2021/06/07 02:12:35;;;;;;;;;15.75;15.75;;;;;;;;3549258;39;113877;-76
2021/06/07 02:15:03;;;;;;;;;15.50;14.00;;;;;;;;3549474;39;112288;-77
2021/06/07 02:17:30;;;;;;;;;15.25;13.75;;;;;;;;3549632;39;113249;-79
2021/06/07 02:19:56;;;;;;;;;16.25;14.75;;;;;;;;3549261;39;112049;-76
2021/06/07 02:22:22;;;;;;;;;14.25;14.25;;;;;;;;3551305;39;113268;-78
2021/06/07 02:24:48;;;;;;;;;15.00;15.00;;;;;;;;3549958;39;114328;-78
2021/06/07 02:27:14;;;;;;;;;16.75;16.00;;;;;;;;3548980;39;111780;-78
2021/06/07 02:29:40;;;;;;;;;15.75;15.75;;;;;;;;3550296;39;113316;-78
2021/06/07 02:32:08;;;;;;;;;15.00;15.00;;;;;;;;3548956;39;114440;-77
2021/06/07 02:34:34;;;;;;;;;15.75;15.75;;;;;;;;3550941;39;113066;-82
2021/06/07 02:37:00;;;;;;;;;13.00;13.00;;;;;;;;3549461;39;113315;-78
2021/06/07 02:39:27;;;;;;;;;16.25;16.25;;;;;;;;3553307;39;114078;-78
2021/06/07 02:41:53;;;;;;;;;14.25;14.25;;;;;;;;3549760;39;113574;-78
2021/06/07 02:44:20;;;;;;;;;17.00;15.75;;;;;;;;3550170;39;113894;-79
2021/06/07 02:46:46;;;;;;;;;18.00;17.00;;;;;;;;3549904;39;111856;-80
2021/06/07 02:49:13;;;;;;;;;14.50;13.75;;;;;;;;3546537;39;112747;-80
2021/06/07 02:51:39;;;;;;;;;16.00;14.75;;;;;;;;3550158;39;115005;-80
2021/06/07 02:54:06;;;;;;;;;17.75;17.75;;;;;;;;3549525;39;112043;-81
2021/06/07 02:56:33;;;;;;;;;16.75;15.75;;;;;;;;3551140;39;113276;-81
2021/06/07 02:58:59;;;;;;;;;15.00;15.00;;;;;;;;3548877;39;114056;-80
2021/06/07 03:01:25;;;;;;;;;15.00;15.00;;;;;;;;3553570;39;111987;-81
2021/06/07 03:03:51;;;;;;;;;14.75;13.50;;;;;;;;3549483;39;114016;-80
2021/06/07 03:06:18;;;;;;;;;17.25;16.00;;;;;;;;3550161;39;112162;-81
2021/06/07 03:08:44;;;;;;;;;17.50;15.25;;;;;;;;3551366;39;113733;-80
2021/06/07 03:11:11;;;;;;;;;16.00;16.00;;;;;;;;3549649;39;113607;-78
2021/06/07 03:13:39;;;;;;;;;16.75;16.75;;;;;;;;3549619;39;112387;-76
2021/06/07 03:16:06;;;;;;;;;15.25;14.00;;;;;;;;3550461;39;113584;-77
2021/06/07 03:18:32;;;;;;;;;16.00;15.50;;;;;;;;3548612;39;113928;-77
2021/06/07 03:20:58;;;;;;;;;17.00;14.00;;;;;;;;3544632;39;111844;-77
2021/06/07 03:23:27;;;;;;;;;18.25;17.50;;;;;;;;3551243;39;113267;-77
2021/06/07 03:25:53;;;;;;;;;14.75;14.75;;;;;;;;3551032;39;111920;-76
2021/06/07 03:28:20;;;;;;;;;16.75;16.75;;;;;;;;3550270;39;113776;-76
2021/06/07 03:30:46;;;;;;;;;18.00;16.25;;;;;;;;3549314;39;113937;-76
2021/06/07 03:33:14;;;;;;;;;17.50;17.50;;;;;;;;3549686;39;112124;-78
2021/06/07 03:35:42;;;;;;;;;16.00;16.00;;;;;;;;3550085;39;113657;-77
2021/06/07 03:38:08;;;;;;;;;17.25;17.25;;;;;;;;3545212;39;113197;-77
2021/06/07 03:40:37;;;;;;;;;16.25;15.50;;;;;;;;3550362;39;111901;-78
2021/06/07 03:43:03;;;;;;;;;16.25;16.25;;;;;;;;3547187;39;112673;-77
2021/06/07 03:45:29;;;;;;;;;17.75;17.75;;;;;;;;3552976;39;113822;-77
2021/06/07 03:47:55;;;;;;;;;18.00;17.50;;;;;;;;3548822;39;113553;-77
2021/06/07 03:50:23;;;;;;;;;20.00;18.75;;;;;;;;3548541;39;113873;-78
2021/06/07 03:52:49;;;;;;;;;19.25;18.75;;;;;;;;3550069;39;111785;-79
2021/06/07 03:55:16;;;;;;;;;17.75;17.00;;;;;;;;3549872;39;113266;-79
2021/06/07 03:57:44;;;;;;;;;17.75;15.50;;;;;;;;3549362;39;113997;-77
2021/06/07 04:00:13;;;;;;;;;15.75;14.25;;;;;;;;3550891;39;111948;-78
2021/06/07 04:02:39;;;;;;;;;15.00;14.75;;;;;;;;3550710;39;113154;-78
2021/06/07 04:05:06;;;;;;;;;21.75;18.75;;;;;;;;3553473;39;113893;-78
2021/06/07 04:07:34;;;;;;;;;19.00;18.50;;;;;;;;3550554;39;113538;-79
2021/06/07 04:10:00;;;;;;;;;17.75;17.25;;;;;;;;3549552;39;113854;-79
2021/06/07 04:12:27;;;;;;;;;18.00;15.75;;;;;;;;3551978;39;111999;-78
2021/06/07 04:14:54;;;;;;;;;15.50;15.50;;;;;;;;3550439;39;113898;-78
2021/06/07 04:17:20;;;;;;;;;19.25;16.25;;;;;;;;3548047;39;114772;-77
2021/06/07 04:19:46;;;;;;;;;19.00;19.00;;;;;;;;3548113;39;112254;-76
2021/06/07 04:22:12;;;;;;;;;19.75;16.50;;;;;;;;3549433;39;114599;-79
2021/06/07 04:24:38;;;;;;;;;13.25;12.50;;;;;;;;3548570;39;113959;-79
2021/06/07 04:27:06;;;;;;;;;16.50;15.75;;;;;;;;3553136;39;111833;-77
2021/06/07 04:29:32;;;;;;;;;19.00;17.75;;;;;;;;3548447;39;115379;-78
2021/06/07 04:32:00;;;;;;;;;17.00;15.50;;;;;;;;3550269;39;112166;-78
2021/06/07 04:34:26;;;;;;;;;14.00;14.00;;;;;;;;3549093;39;113301;-78
2021/06/07 04:36:52;;;;;;;;;14.00;13.25;;;;;;;;3550509;39;114304;-78
2021/06/07 04:39:18;;;;;;;;;18.50;15.50;;;;;;;;3549605;39;112251;-77
2021/06/07 04:41:44;;;;;;;;;15.50;15.50;;;;;;;;3549538;39;113276;-75
2021/06/07 04:44:10;;;;;;;;;15.50;15.50;;;;;;;;3548512;39;114609;-72
2021/06/07 04:46:36;;;;;;;;;19.50;19.50;;;;;;;;3549357;39;111866;-72
2021/06/07 04:49:04;;;;;;;;;19.50;18.00;;;;;;;;3550370;39;113416;-72
2021/06/07 04:51:30;;;;;;;;;17.75;16.50;;;;;;;;3549609;39;111868;-75
2021/06/07 04:53:56;;;;;;;;;15.50;13.75;;;;;;;;3546079;39;113263;-73
2021/06/07 04:56:22;;;;;;;;;16.50;16.50;;;;;;;;3549024;39;114415;-74
2021/06/07 04:58:48;;;;;;;;;17.50;15.00;;;;;;;;3549484;39;111749;-72
2021/06/07 05:01:16;;;;;;;;;18.75;18.75;;;;;;;;3545271;39;113319;-73
2021/06/07 05:03:42;;;;;;;;;11.75;11.75;;;;;;;;3545342;39;114964;-72
2021/06/07 05:06:10;;;;;;;;;20.00;18.75;;;;;;;;3546385;39;112373;-73
2021/06/07 05:08:36;;;;;;;;;16.75;16.00;;;;;;;;3545843;39;113657;-72
2021/06/07 05:11:02;;;;;;;;;19.75;19.75;;;;;;;;3544927;39;114435;-71
2021/06/07 05:13:28;;;;;;;;;17.75;16.50;;;;;;;;3543429;39;113807;-73
2021/06/07 05:15:55;;;;;;;;;16.00;16.00;;;;;;;;3544279;39;113753;-72
2021/06/07 05:18:21;;;;;;;;;17.50;16.00;;;;;;;;3542930;39;111979;-72
2021/06/07 05:20:47;;;;;;;;;17.75;17.25;;;;;;;;3543633;39;113886;-71
2021/06/07 05:23:15;;;;;;;;;20.00;20.00;;;;;;;;3544180;39;114712;-73
2021/06/07 05:25:42;;;;;;;;;19.00;16.00;;;;;;;;3544071;39;112245;-70
2021/06/07 05:28:09;;;;;;;;;20.00;19.00;;;;;;;;3543901;39;113254;-71
2021/06/07 05:30:36;;;;;;;;;15.25;15.25;;;;;;;;3547088;39;113035;-71
2021/06/07 05:33:02;;;;;;;;;19.50;18.50;;;;;;;;3551663;39;112236;-71
2021/06/07 05:35:29;;;;;;;;;19.75;19.25;;;;;;;;3546560;39;114072;-71
2021/06/07 05:37:57;;;;;;;;;22.75;20.00;;;;;;;;3546523;39;112098;-72
2021/06/07 05:40:25;;;;;;;;;22.00;19.75;;;;;;;;3547835;39;113348;-75
2021/06/07 05:42:52;;;;;;;;;21.75;20.00;;;;;;;;3548426;39;114294;-71
2021/06/07 05:45:19;;;;;;;;;21.50;17.75;;;;;;;;3548125;39;111877;-73
2021/06/07 05:47:45;;;;;;;;;24.75;24.75;;;;;;;;3548217;39;113405;-76
2021/06/07 05:50:13;;;;;;;;;18.00;18.00;;;;;;;;3548045;39;114342;-78
2021/06/07 05:52:45;;;;;;;;;25.25;23.00;;;;;;;;3548876;39;111835;-73
2021/06/07 05:55:12;;;;;;;;;18.25;15.00;;;;;;;;3551010;39;113802;-73
2021/06/07 05:57:39;;;;;;;;;22.50;19.50;;;;;;;;3549764;39;112359;-75
2021/06/07 06:00:06;;;;;;;;;17.50;17.50;;;;;;;;3548683;39;113522;-74
2021/06/07 06:02:32;;;;;;;;;22.25;21.00;;;;;;;;3549587;39;114592;-73
2021/06/07 06:04:58;;;;;;;;;22.25;21.50;;;;;;;;3548548;39;111803;-73
2021/06/07 06:07:24;;;;;;;;;16.50;16.50;;;;;;;;3548004;39;112231;-72
2021/06/07 06:09:51;;;;;;;;;20.75;20.75;;;;;;;;3548558;39;113955;-72
2021/06/07 06:12:17;;;;;;;;;21.00;18.50;;;;;;;;3548799;39;111935;-69
2021/06/07 06:14:44;;;;;;;;;21.00;18.75;;;;;;;;3547366;39;114526;-75
2021/06/07 06:17:10;;;;;;;;;24.25;23.25;;;;;;;;3549504;39;111896;-76
2021/06/07 06:19:36;;;;;;;;;23.00;20.25;;;;;;;;3550729;39;113190;-71
2021/06/07 06:22:05;;;;;;;;;20.75;18.25;;;;;;;;3544555;39;113578;-72
2021/06/07 06:24:31;;;;;;;;;20.25;20.25;;;;;;;;3546350;39;111877;-73
2021/06/07 06:26:57;;;;;;;;;20.25;20.00;;;;;;;;3547087;39;112262;-73
2021/06/07 06:29:24;;;;;;;;;24.00;22.00;;;;;;;;3547330;39;114063;-71
2021/06/07 06:31:51;;;;;;;;;19.75;18.50;;;;;;;;3548875;39;112043;-71
2021/06/07 06:34:17;;;;;;;;;22.75;21.50;;;;;;;;3546578;39;112421;-73
2021/06/07 06:36:43;;;;;;;;;19.25;17.50;;;;;;;;3549007;39;112881;-72
2021/06/07 06:39:09;;;;;;;;;21.75;19.25;;;;;;;;3548132;39;113308;-72
2021/06/07 06:41:36;;;;;;;;;21.25;19.00;;;;;;;;3548964;39;114146;-72
2021/06/07 06:44:02;;;;;;;;;21.75;21.75;;;;;;;;3548125;39;112129;-72
2021/06/07 06:46:28;;;;;;;;;21.75;20.25;;;;;;;;3545989;39;113368;-73
2021/06/07 06:48:56;;;;;;;;;19.00;19.00;;;;;;;;3549129;39;113839;-74
2021/06/07 06:51:22;;;;;;;;;21.00;20.50;;;;;;;;3548664;39;111973;-76
2021/06/07 06:53:48;;;;;;;;;22.00;20.50;;;;;;;;3548758;39;113722;-75
2021/06/07 06:56:15;;;;;;;;;20.75;20.75;;;;;;;;3548201;39;113888;-77
2021/06/07 06:58:41;;;;;;;;;22.00;21.75;;;;;;;;3550901;39;112346;-76
2021/06/07 07:01:08;;;;;;;;;21.00;19.50;;;;;;;;3549443;39;113948;-80
2021/06/07 07:03:34;;;;;;;;;20.00;20.00;;;;;;;;3548245;39;111951;-75
2021/06/07 07:06:01;;;;;;;;;19.75;17.00;;;;;;;;3549004;39;113579;-77
2021/06/07 07:08:29;;;;;;;;;18.00;18.00;;;;;;;;3545416;39;114329;-77
2021/06/07 07:10:56;;;;;;;;;18.50;18.00;;;;;;;;3549394;39;111919;-76
2021/06/07 07:13:22;;;;;;;;;18.00;17.75;;;;;;;;3548617;39;113423;-84
2021/06/07 07:15:48;;;;;;;;;19.25;18.25;;;;;;;;3546602;39;114303;-78
2021/06/07 07:18:15;;;;;;;;;21.00;19.75;;;;;;;;3548406;39;112015;-75
2021/06/07 07:20:42;;;;;;;;;19.00;18.00;;;;;;;;3551540;39;113333;-75
2021/06/07 07:23:09;;;;;;;;;18.75;18.75;;;;;;;;3548244;39;112215;-75
2021/06/07 07:25:36;;;;;;;;;17.00;17.00;;;;;;;;3549168;39;113770;-74
2021/06/07 07:28:02;;;;;;;;;17.00;15.75;;;;;;;;3547469;39;113853;-78
2021/06/07 07:30:30;;;;;;;;;17.50;15.25;;;;;;;;3548696;39;111867;-76
2021/06/07 07:32:56;;;;;;;;;17.00;15.50;;;;;;;;3549689;39;113207;-76
2021/06/07 07:35:23;;;;;;;;;17.25;13.25;;;;;;;;3547138;39;112933;-80
2021/06/07 07:37:49;;;;;;;;;11.50;11.00;;;;;;;;3548347;39;111870;-80
2021/06/07 07:40:19;;;;;;;;;15.00;13.75;;;;;;;;3548940;39;113509;-78
2021/06/07 07:42:45;;;;;;;;;13.00;12.75;;;;;;;;3551234;39;114290;-82
2021/06/07 07:45:11;;;;;;;;;14.00;14.00;;;;;;;;3547592;39;114077;-85
2021/06/07 07:47:38;;;;;;;;;14.50;14.50;;;;;;;;3545179;39;112858;-84
2021/06/07 07:50:05;;;;;;;;;14.00;10.25;;;;;;;;3546250;39;112232;-81
2021/06/07 07:52:31;;;;;;;;;14.00;13.00;;;;;;;;3549590;39;113513;-77
2021/06/07 07:54:57;;;;;;;;;13.25;13.25;;;;;;;;3547213;39;115044;-77
2021/06/07 07:57:25;;;;;;;;;13.25;12.75;;;;;;;;3549102;39;112253;-76
2021/06/07 07:59:51;;;;;;;;;14.50;14.50;;;;;;;;3548013;39;114044;-75
2021/06/07 08:02:17;;;;;;;;;11.50;11.50;;;;;;;;3545295;39;112723;-76
2021/06/07 08:04:44;;;;;;;;;11.25;11.00;;;;;;;;3551349;39;111785;-76
2021/06/07 08:07:10;;;;;;;;;15.50;13.50;;;;;;;;3547689;39;113813;-77
2021/06/07 08:09:37;;;;;;;;;11.00;10.00;;;;;;;;3549323;39;112310;-77
2021/06/07 08:12:03;;;;;;;;;11.67;10.33;;;;;;;;3547389;39;113373;-75
2021/06/07 08:14:31;;;;;;;;;12.67;12.00;;;;;;;;3547622;39;113152;-76
2021/06/07 08:16:58;;;;;;;;;12.67;11.33;;;;;;;;3545211;39;112047;-76
2021/06/07 08:19:24;;;;;;;;;7.00;7.00;;;;;;;;3546064;39;112342;-75
2021/06/07 08:21:51;;;;;;;;;7.67;7.67;;;;;;;;3546542;39;114428;-75
2021/06/07 08:24:17;;;;;;;;;17.00;13.33;;;;;;;;3550109;39;112032;-75
2021/06/07 08:26:43;;;;;;;;;10.00;10.00;;;;;;;;3546592;39;115290;-76
2021/06/07 08:29:09;;;;;;;;;10.00;10.00;;;;;;;;3547947;39;111897;-77
2021/06/07 08:31:37;;;;;;;;;13.33;13.33;;;;;;;;3547367;39;113538;-75
2021/06/07 08:34:03;;;;;;;;;12.00;12.00;;;;;;;;3548210;39;114038;-76
2021/06/07 08:36:30;;;;;;;;;16.00;14.00;;;;;;;;3548285;39;112114;-75
2021/06/07 08:38:56;;;;;;;;;22.33;17.00;;;;;;;;3546193;39;114856;-76
2021/06/07 08:41:22;;;;;;;;;20.00;15.67;;;;;;;;3543234;39;113393;-76
2021/06/07 08:43:49;;;;;;;;;10.00;10.00;;;;;;;;3546861;39;111797;-75
2021/06/07 08:46:15;;;;;;;;;14.00;11.67;;;;;;;;3549459;39;113236;-75
2021/06/07 08:48:43;;;;;;;;;14.67;14.00;;;;;;;;3545576;39;112320;-75
2021/06/07 08:51:12;;;;;;;;;12.33;11.67;;;;;;;;3547084;39;113342;-76
2021/06/07 08:53:39;;;;;;;;;14.67;14.33;;;;;;;;3547472;39;114028;-75
2021/06/07 08:56:05;;;;;;;;;12.00;12.00;;;;;;;;3547958;39;112478;-75
2021/06/07 08:58:31;;;;;;;;;13.00;13.00;;;;;;;;3547051;39;113630;-75
2021/06/07 09:00:57;;;;;;;;;11.00;11.00;;;;;;;;3548582;39;114032;-75
2021/06/07 09:03:29;;;;;;;;;12.00;12.00;;;;;;;;3547527;39;111937;-74
2021/06/07 09:05:57;;;;;;;;;13.00;11.33;;;;;;;;3545499;39;113516;-74
2021/06/07 09:08:28;;;;;;;;;13.67;13.67;;;;;;;;3549626;39;112641;-74
2021/06/07 09:10:55;;;;;;;;;13.67;13.67;;;;;;;;3547426;39;113310;-75
2021/06/07 09:13:22;;;;;;;;;10.33;10.33;;;;;;;;3548283;39;113982;-75
2021/06/07 09:15:49;;;;;;;;;13.67;13.67;;;;;;;;3544395;39;112171;-75
2021/06/07 09:18:19;;;;;;;;;16.00;13.00;;;;;;;;3548286;39;113596;-74
2021/06/07 09:20:45;;;;;;;;;12.00;12.00;;;;;;;;3544014;39;113237;-74
2021/06/07 09:23:14;;;;;;;;;14.67;13.00;;;;;;;;3546735;39;112225;-73
2021/06/07 09:25:41;;;;;;;;;13.33;12.67;;;;;;;;3548153;39;113162;-74
2021/06/07 09:28:09;;;;;;;;;14.00;12.00;;;;;;;;3547223;39;114186;-75
2021/06/07 09:30:37;;;;;;;;;15.00;15.00;;;;;;;;3550264;39;111920;-76
2021/06/07 09:33:19;;;;;;;;;17.33;15.00;;;;;;;;3548212;39;114586;-75
2021/06/07 09:35:46;;;;;;;;;12.00;12.00;;;;;;;;3546135;39;112195;-76
2021/06/07 09:38:14;;;;;;;;;13.00;13.00;;;;;;;;3547908;39;113772;-75
2021/06/07 09:40:40;;;;;;;;;13.00;12.67;;;;;;;;3546590;39;113968;-87
2021/06/07 09:43:06;;;;;;;;;14.00;14.00;;;;;;;;3547943;39;112147;-75
2021/06/07 09:45:44;;;;;;;;;15.67;15.00;;;;;;;;3545569;39;113207;-75
2021/06/07 09:48:11;;;;;;;;;14.33;13.33;;;;;;;;3545965;39;114403;-76
2021/06/07 09:50:37;;;;;;;;;17.00;16.33;;;;;;;;3546227;39;112775;-76
2021/06/07 09:53:03;;;;;;;;;15.00;13.33;;;;;;;;3549563;39;113879;-76
2021/06/07 09:55:31;;;;;;;;;14.33;14.00;;;;;;;;3542646;39;112065;-76
2021/06/07 09:57:58;;;;;;;;;18.33;16.00;;;;;;;;3548596;39;113218;-76
2021/06/07 10:00:34;;;;;;;;;12.00;12.00;;;;;;;;3549000;39;113890;-75
2021/06/07 10:03:13;;;;;;;;;13.00;13.00;;;;;;;;3545667;39;111695;-75
2021/06/07 10:05:39;;;;;;;;;13.00;13.00;;;;;;;;3547823;39;113246;-76
2021/06/07 10:08:05;;;;;;;;;14.00;13.67;;;;;;;;3547457;39;114101;-75
2021/06/07 10:10:34;;;;;;;;;12.00;12.00;;;;;;;;3549169;39;112048;-83
2021/06/07 10:13:04;;;;;;;;;14.00;14.00;;;;;;;;3546259;39;112269;-79
2021/06/07 10:15:31;;;;;;;;;10.67;10.67;;;;;;;;3556049;39;112017;-89
2021/06/07 10:17:57;;;;;;;;;13.00;13.00;;;;;;;;3551344;39;113275;-77
2021/06/07 10:23:07;;;;;;;;;12.67;12.67;;;;;;;;3546516;39;112475;-74
2021/06/07 10:25:35;;;;;;;;;11.00;11.00;;;;;;;;3548767;39;113265;-75
2021/06/07 10:28:01;;;;;;;;;14.33;14.33;;;;;;;;3548038;39;113861;-75
2021/06/07 10:30:28;;;;;;;;;14.67;14.67;;;;;;;;3547149;39;111870;-74
2021/06/07 10:32:54;;;;;;;;;19.33;19.00;;;;;;;;3547391;39;113809;-78
2021/06/07 10:35:28;;;;;;;;;21.33;19.33;;;;;;;;3550802;39;113807;-77
2021/06/07 10:37:58;;;;;;;;;17.67;15.67;;;;;;;;3543970;39;113264;-79
2021/06/07 10:40:25;;;;;;;;;12.33;12.33;;;;;;;;3546780;39;114246;-76
2021/06/07 10:42:57;;;;;;;;;19.00;17.67;;;;;;;;3549877;39;112034;-77
2021/06/07 10:45:24;;;;;;;;;20.33;20.33;;;;;;;;3546749;39;113680;-78
2021/06/07 10:47:51;;;;;;;;;14.67;14.00;;;;;;;;3549304;39;114834;-78
2021/06/07 10:50:20;;;;;;;;;18.67;17.67;;;;;;;;3548967;39;112245;-81
2021/06/07 10:52:50;;;;;;;;;15.00;15.00;;;;;;;;3549488;39;113334;-80
2021/06/07 10:55:18;;;;;;;;;14.00;12.00;;;;;;;;3546570;39;112976;-78
2021/06/07 10:57:49;;;;;;;;;10.00;10.00;;;;;;;;3554480;39;113635;-80
2021/06/07 11:00:23;;;;;;;;;9.00;9.00;;;;;;;;3550968;39;113807;-76
2021/06/07 11:02:50;;;;;;;;;12.00;10.00;;;;;;;;3548015;39;112048;-78
2021/06/07 11:05:18;;;;;;;;;13.33;13.33;;;;;;;;3548271;39;113514;-78
2021/06/07 11:07:45;;;;;;;;;11.33;11.33;;;;;;;;3548669;39;114147;-79
2021/06/07 11:10:14;;;;;;;;;15.67;15.67;;;;;;;;3548796;39;111855;-79
2021/06/07 11:12:41;;;;;;;;;20.00;19.33;;;;;;;;3546869;39;113912;-80
2021/06/07 11:15:10;;;;;;;;;11.00;11.00;;;;;;;;3548605;39;113887;-78
2021/06/07 11:17:38;;;;;;;;;14.00;11.33;;;;;;;;3547162;39;112302;-78
2021/06/07 11:20:05;;;;;;;;;18.00;15.00;;;;;;;;3551207;39;113503;-78
2021/06/07 11:23:02;;;;;;;;;15.33;14.33;;;;;;;;3546295;39;112193;-78
2021/06/07 11:25:28;;;;;;;;;14.33;14.33;;;;;;;;3548537;39;113639;-79
2021/06/07 11:27:54;;;;;;;;;9.00;8.33;;;;;;;;3544617;39;114155;-78
2021/06/07 11:30:21;;;;;;;;;14.00;11.00;;;;;;;;3546944;39;112073;-78
2021/06/07 11:32:49;;;;;;;;;10.33;10.00;;;;;;;;3547679;39;114132;-78
2021/06/07 11:35:33;;;;;;;;;11.67;10.00;;;;;;;;3544964;39;114254;-77
2021/06/07 11:38:14;;;;;;;;;11.00;11.00;;;;;;;;3547008;39;112594;-78
2021/06/07 11:40:40;;;;;;;;;8.33;8.33;;;;;;;;3548733;39;113640;-79
2021/06/07 11:43:06;;;;;;;;;11.00;11.00;;;;;;;;3549652;39;114051;-80
2021/06/07 11:45:39;;;;;;;;;10.00;8.33;;;;;;;;3547306;39;112402;-80
2021/06/07 11:48:07;;;;;;;;;6.33;6.33;;;;;;;;3547755;39;114459;-80
2021/06/07 11:50:37;;;;;;;;;8.00;8.00;;;;;;;;3548124;39;112087;-77
2021/06/07 11:53:10;;;;;;;;;11.00;10.00;;;;;;;;3548089;39;113276;-78
2021/06/07 11:55:37;;;;;;;;;10.00;10.00;;;;;;;;3545878;39;112993;-79
2021/06/07 11:58:10;;;;;;;;;12.00;11.00;;;;;;;;3548125;39;113036;-76
2021/06/07 12:00:40;;;;;;;;;7.00;7.00;;;;;;;;3549026;39;113494;-76
2021/06/07 12:03:08;;;;;;;;;7.00;6.33;;;;;;;;3547863;39;113765;-75
2021/06/07 12:05:34;;;;;;;;;9.00;8.00;;;;;;;;3551529;39;112104;-75
2021/06/07 12:08:03;;;;;;;;;10.00;9.00;;;;;;;;3545931;39;112968;-74
2021/06/07 12:10:30;;;;;;;;;9.33;9.33;;;;;;;;3549121;39;111791;-76
2021/06/07 12:12:56;;;;;;;;;9.67;8.67;;;;;;;;3546386;39;112468;-74
2021/06/07 12:15:22;;;;;;;;;6.00;6.00;;;;;;;;3549384;39;113912;-79
2021/06/07 12:17:50;;;;;;;;;8.00;7.00;;;;;;;;3549188;39;112135;-83
2021/06/07 12:20:19;;;;;;;;;6.67;6.67;;;;;;;;3545188;39;113279;-87
2021/06/07 12:22:46;;;;;;;;;7.33;7.00;;;;;;;;3547596;39;113979;-85
2021/06/07 12:25:19;;;;;;;;;5.00;4.00;;;;;;;;3547406;39;112466;-83
2021/06/07 12:30:30;;;;;;;;;6.67;6.33;;;;;;;;3544856;39;112560;-79
2021/06/07 12:32:56;;;;;;;;;5.67;5.67;;;;;;;;3552893;39;113925;-82
2021/06/07 12:35:24;;;;;;;;;6.00;6.00;;;;;;;;3547309;39;113975;-81
2021/06/07 12:37:51;;;;;;;;;7.67;7.67;;;;;;;;3546865;39;112011;-79
2021/06/07 12:40:24;;;;;;;;;6.00;6.00;;;;;;;;3545742;39;113211;-81
2021/06/07 12:42:55;;;;;;;;;6.67;6.67;;;;;;;;3545015;39;114602;-82
2021/06/07 12:45:23;;;;;;;;;7.00;7.00;;;;;;;;3547107;39;112219;-81
2021/06/07 12:47:49;;;;;;;;;7.00;7.00;;;;;;;;3550533;39;113866;-82
2021/06/07 12:50:19;;;;;;;;;6.00;6.00;;;;;;;;3547806;39;111863;-83
2021/06/07 12:52:47;;;;;;;;;8.33;7.00;;;;;;;;3545973;39;113502;-82
2021/06/07 12:55:14;;;;;;;;;6.00;6.00;;;;;;;;3546892;39;113920;-82
2021/06/07 12:57:40;;;;;;;;;6.00;6.00;;;;;;;;3549240;39;111891;-82
2021/06/07 13:00:23;;;;;;;;;6.67;6.67;;;;;;;;3545417;39;113166;-82
2021/06/07 13:02:49;;;;;;;;;7.00;5.00;;;;;;;;3544820;39;112880;-80
2021/06/07 13:05:24;;;;;;;;;8.00;8.00;;;;;;;;3545412;39;112179;-76
2021/06/07 13:08:05;;;;;;;;;7.00;7.00;;;;;;;;3545709;39;113662;-74
2021/06/07 13:10:37;;;;;;;;;7.33;7.00;;;;;;;;3550218;39;114649;-75
2021/06/07 13:13:03;;;;;;;;;7.33;7.00;;;;;;;;3545253;39;112848;-76
2021/06/07 13:15:29;;;;;;;;;6.67;5.67;;;;;;;;3548426;39;114155;-78
2021/06/07 13:18:02;;;;;;;;;5.33;5.00;;;;;;;;3545599;39;111989;-81
2021/06/07 13:20:29;;;;;;;;;6.00;6.00;;;;;;;;3545879;39;113042;-87
2021/06/07 13:22:55;;;;;;;;;6.00;5.00;;;;;;;;3545525;39;114235;-75
2021/06/07 13:25:21;;;;;;;;;8.00;7.00;;;;;;;;3547232;39;111912;-77
2021/06/07 13:27:49;;;;;;;;;6.00;3.00;;;;;;;;3548184;39;113416;-75
2021/06/07 13:30:16;;;;;;;;;4.00;3.00;;;;;;;;3544540;39;114871;-75
2021/06/07 13:32:42;;;;;;;;;5.00;5.00;;;;;;;;3550174;39;111842;-74
2021/06/07 13:35:10;;;;;;;;;4.00;4.00;;;;;;;;3547852;39;113781;-78
2021/06/07 13:37:38;;;;;;;;;3.33;3.00;;;;;;;;3548630;39;112484;-76
2021/06/07 13:40:07;;;;;;;;;3.00;3.00;;;;;;;;3548071;39;113364;-74
2021/06/07 13:42:40;;;;;;;;;4.00;4.00;;;;;;;;3548405;39;114320;-70
2021/06/07 13:45:08;;;;;;;;;3.67;2.00;;;;;;;;3547604;39;111816;-70
2021/06/07 13:47:36;;;;;;;;;3.33;3.33;;;;;;;;3545440;39;112484;-69
2021/06/07 13:50:11;;;;;;;;;5.00;3.67;;;;;;;;3544655;39;113797;-70
2021/06/07 13:52:38;;;;;;;;;4.00;4.00;;;;;;;;3544927;39;112002;-69
2021/06/07 13:55:12;;;;;;;;;5.33;3.33;;;;;;;;3549449;39;113282;-71
2021/06/07 13:57:52;;;;;;;;;3.67;3.33;;;;;;;;3547788;39;111841;-70
2021/06/07 14:00:19;;;;;;;;;5.67;5.67;;;;;;;;3549064;39;113390;-73
2021/06/07 14:02:45;;;;;;;;;6.00;6.00;;;;;;;;3544140;39;113119;-75
2021/06/07 14:05:12;;;;;;;;;7.50;6.75;;;;;;;;3547710;39;111772;-70
2021/06/07 14:07:38;;;;;;;;;5.00;5.00;;;;;;;;3548211;39;113533;-72
2021/06/07 14:10:04;;;;;;;;;6.00;5.67;;;;;;;;3547748;39;113931;-71
2021/06/07 14:12:30;;;;;;;;;5.00;4.33;;;;;;;;3547367;39;112211;-70
2021/06/07 14:14:56;;;;;;;;;4.00;4.00;;;;;;;;3548613;39;113273;-72